Time;durP1;ratioP1;P1;durP2;ratioP2;P2;SDS_P1;SDS_P2;PMS_P1;PMS_P2;Temp;Humidity;BMP_temperature;BMP_pressure;BME280_temperature;BME280_humidity;BME280_pressure;Samples;Min_cycle;Max_cycle;Signal;HPM_P1;HPM_P2
2024/01/11 00:00:46;;;;;;;23.43;8.77;;;;;;;-9.07;100.00;102749.41;5953916;29;20036;-69
2024/01/11 00:03:41;;;;;;;26.90;7.00;;;;;;;-9.39;100.00;102762.47;5944698;29;20480;-69
2024/01/11 00:06:43;;;;;;;26.67;7.17;;;;;;;-9.21;100.00;102783.38;5953052;29;20031;-69
2024/01/11 00:09:42;;;;;;;24.65;7.40;;;;;;;-9.05;100.00;102759.72;5958813;29;20039;-69
2024/01/11 00:12:38;;;;;;;22.48;7.70;;;;;;;-9.10;100.00;102756.16;5950430;29;20035;-70
2024/01/11 00:15:33;;;;;;;16.87;6.93;;;;;;;-9.16;100.00;102750.94;5958871;29;20038;-70
2024/01/11 00:18:28;;;;;;;20.00;7.50;;;;;;;-9.02;100.00;102758.91;5954696;29;20043;-69
2024/01/11 00:21:23;;;;;;;19.43;8.47;;;;;;;-8.75;100.00;102749.09;5956202;29;20063;-70
2024/01/11 00:24:19;;;;;;;22.80;8.13;;;;;;;-8.64;100.00;102739.84;5944228;29;20063;-70
2024/01/11 00:27:14;;;;;;;25.75;9.35;;;;;;;-8.61;100.00;102732.16;5948154;29;20035;-70
2024/01/11 00:30:10;;;;;;;26.60;8.60;;;;;;;-8.75;100.00;102734.50;5948600;29;20066;-70
2024/01/11 00:33:06;;;;;;;16.20;7.18;;;;;;;-8.55;100.00;102727.13;5952106;29;20484;-70
2024/01/11 00:36:02;;;;;;;17.80;7.15;;;;;;;-8.77;100.00;102715.63;5953648;29;20054;-70
2024/01/11 00:38:57;;;;;;;14.80;6.45;;;;;;;-9.03;100.00;102719.50;5950632;29;20047;-70
2024/01/11 00:41:52;;;;;;;25.53;8.00;;;;;;;-8.95;100.00;102710.22;5950203;29;20032;-69
2024/01/11 00:44:47;;;;;;;20.20;7.03;;;;;;;-8.98;100.00;102738.41;5944927;29;20339;-70
2024/01/11 00:47:43;;;;;;;20.60;8.67;;;;;;;-8.72;100.00;102744.84;5950266;29;20035;-70
2024/01/11 00:50:38;;;;;;;21.70;6.60;;;;;;;-8.89;100.00;102720.59;5954406;29;20090;-70
2024/01/11 00:53:33;;;;;;;19.70;6.77;;;;;;;-9.16;100.00;102727.84;5958074;29;20042;-70
2024/01/11 00:56:29;;;;;;;21.33;8.30;;;;;;;-8.99;100.00;102741.81;5953193;29;20475;-70
2024/01/11 00:59:24;;;;;;;18.97;5.70;;;;;;;-9.01;100.00;102740.06;5957718;29;20054;-70
2024/01/11 01:02:20;;;;;;;18.80;8.47;;;;;;;-8.95;100.00;102725.63;5948434;29;20063;-70
2024/01/11 01:05:15;;;;;;;21.30;6.63;;;;;;;-8.87;100.00;102734.34;5946190;29;20039;-70
2024/01/11 01:08:11;;;;;;;27.13;10.37;;;;;;;-8.82;100.00;102719.84;5954737;29;20036;-70
2024/01/11 01:11:06;;;;;;;21.60;8.57;;;;;;;-8.64;100.00;102701.28;5943049;29;20031;-70
2024/01/11 01:14:01;;;;;;;24.33;8.00;;;;;;;-8.64;100.00;102702.13;5947601;29;20627;-70
2024/01/11 01:16:57;;;;;;;18.53;8.43;;;;;;;-9.02;100.00;102716.06;5950841;29;20062;-69
2024/01/11 01:19:52;;;;;;;23.33;6.53;;;;;;;-8.81;100.00;102698.47;5956446;29;20381;-70
2024/01/11 01:22:48;;;;;;;17.90;6.60;;;;;;;-8.93;100.00;102707.66;5957145;29;20491;-70
2024/01/11 01:25:43;;;;;;;14.43;5.35;;;;;;;-9.22;100.00;102715.75;5952068;29;20279;-70
2024/01/11 01:28:39;;;;;;;17.53;6.10;;;;;;;-8.99;100.00;102710.16;5952322;29;20032;-69
2024/01/11 01:31:37;;;;;;;15.88;6.53;;;;;;;-9.00;100.00;102726.38;5950990;29;20277;-69
2024/01/11 01:34:32;;;;;;;17.80;7.13;;;;;;;-8.95;100.00;102725.63;5956103;28;20035;-70
2024/01/11 01:37:28;;;;;;;16.50;5.93;;;;;;;-9.13;100.00;102725.31;5951256;29;20047;-69
2024/01/11 01:40:23;;;;;;;15.43;6.00;;;;;;;-8.87;100.00;102734.34;5950617;29;20334;-69
2024/01/11 01:43:18;;;;;;;15.97;5.13;;;;;;;-8.81;100.00;102703.59;5950326;29;20412;-70
2024/01/11 01:46:19;;;;;;;16.30;5.87;;;;;;;-9.30;100.00;102721.59;5953263;29;20038;-70
2024/01/11 01:49:17;;;;;;;19.02;5.85;;;;;;;-9.59;100.00;102740.72;5954773;29;20039;-69
2024/01/11 01:52:15;;;;;;;20.35;5.57;;;;;;;-8.98;100.00;102715.28;5944797;29;20047;-69
2024/01/11 01:55:12;;;;;;;22.17;6.32;;;;;;;-9.23;100.00;102734.56;5946556;29;20036;-69
2024/01/11 01:58:07;;;;;;;16.55;5.30;;;;;;;-9.26;100.00;102737.06;5950395;29;20031;-69
2024/01/11 02:01:03;;;;;;;10.07;4.17;;;;;;;-9.07;100.00;102720.28;5956903;29;20554;-69
2024/01/11 02:03:58;;;;;;;14.60;5.75;;;;;;;-9.34;100.00;102740.31;5955612;29;20431;-70
2024/01/11 02:06:55;;;;;;;13.25;4.53;;;;;;;-9.22;100.00;102732.84;5949158;29;20137;-70
2024/01/11 02:09:50;;;;;;;17.50;6.97;;;;;;;-9.25;100.00;102722.53;5941236;29;20032;-70
2024/01/11 02:12:46;;;;;;;20.00;8.27;;;;;;;-8.79;100.00;102714.75;5953708;29;20059;-70
2024/01/11 02:15:42;;;;;;;13.45;6.22;;;;;;;-8.97;100.00;102705.88;5950822;29;20075;-69
2024/01/11 02:18:37;;;;;;;19.13;7.83;;;;;;;-9.08;100.00;102710.84;5955639;29;20467;-69
2024/01/11 02:21:33;;;;;;;17.80;6.33;;;;;;;-9.04;100.00;102704.91;5951548;29;20111;-70
2024/01/11 02:24:28;;;;;;;22.92;6.70;;;;;;;-8.83;100.00;102718.09;5925431;29;20110;-69
2024/01/11 02:27:24;;;;;;;10.23;5.03;;;;;;;-9.35;100.00;102702.66;5949200;29;20031;-69
2024/01/11 02:30:19;;;;;;;17.07;5.37;;;;;;;-9.61;100.00;102709.00;5947444;29;20033;-69
2024/01/11 02:33:15;;;;;;;18.37;7.73;;;;;;;-8.98;100.00;102701.59;5943324;29;20038;-70
2024/01/11 02:36:11;;;;;;;20.08;7.30;;;;;;;-9.53;100.00;102702.31;5953450;29;20279;-70
2024/01/11 02:39:07;;;;;;;10.93;4.85;;;;;;;-9.53;100.00;102689.47;5948287;29;20054;-70
2024/01/11 02:42:03;;;;;;;21.75;5.65;;;;;;;-9.75;100.00;102704.47;5952386;29;20535;-70
2024/01/11 02:44:58;;;;;;;22.40;6.95;;;;;;;-9.31;100.00;102694.16;5940332;29;20039;-70
2024/01/11 02:47:55;;;;;;;17.50;6.40;;;;;;;-9.17;100.00;102685.00;5947461;29;20375;-70
2024/01/11 02:50:51;;;;;;;20.38;6.05;;;;;;;-9.43;100.00;102683.69;5955149;29;20106;-69
2024/01/11 02:53:46;;;;;;;22.23;7.53;;;;;;;-9.38;100.00;102677.81;5945364;29;20032;-70
2024/01/11 02:56:42;;;;;;;12.80;4.80;;;;;;;-9.36;100.00;102680.38;5944364;29;20046;-70
2024/01/11 02:59:39;;;;;;;16.48;4.97;;;;;;;-9.83;100.00;102671.81;5949846;29;20119;-70
2024/01/11 03:02:34;;;;;;;26.55;6.80;;;;;;;-9.62;100.00;102689.31;5949375;29;20042;-70
2024/01/11 03:05:30;;;;;;;24.10;8.47;;;;;;;-8.99;100.00;102687.88;5954866;29;20040;-70
2024/01/11 03:08:26;;;;;;;24.73;7.30;;;;;;;-9.32;100.00;102687.31;5949709;29;20054;-69
2024/01/11 03:11:21;;;;;;;26.98;7.03;;;;;;;-9.14;100.00;102692.75;5952041;29;20119;-69
2024/01/11 03:14:17;;;;;;;17.50;6.70;;;;;;;-9.02;100.00;102692.94;5955644;29;20479;-69
2024/01/11 03:17:12;;;;;;;18.23;6.57;;;;;;;-9.07;100.00;102687.75;5946449;29;20043;-69
2024/01/11 03:20:08;;;;;;;15.57;7.20;;;;;;;-8.78;100.00;102679.66;5955878;29;20043;-69
2024/01/11 03:23:03;;;;;;;21.40;7.07;;;;;;;-8.54;100.00;102673.16;5946622;29;20032;-69
2024/01/11 03:25:58;;;;;;;27.10;8.63;;;;;;;-8.40;100.00;102672.50;5951786;29;20075;-70
2024/01/11 03:28:54;;;;;;;20.40;6.33;;;;;;;-8.70;100.00;102683.19;5955567;29;20047;-69
2024/01/11 03:31:49;;;;;;;30.93;7.23;;;;;;;-8.89;100.00;102674.34;5957146;29;20039;-69
2024/01/11 03:34:44;;;;;;;27.93;6.27;;;;;;;-9.13;100.00;102694.50;5959678;29;20039;-69
2024/01/11 03:37:40;;;;;;;17.07;7.40;;;;;;;-8.97;100.00;102699.06;5957517;29;20031;-70
2024/01/11 03:40:35;;;;;;;16.33;6.10;;;;;;;-9.27;100.00;102721.66;5951436;29;20040;-70
2024/01/11 03:43:30;;;;;;;18.13;6.50;;;;;;;-9.26;100.00;102724.22;5950823;29;20272;-70
2024/01/11 03:46:26;;;;;;;26.57;7.77;;;;;;;-9.22;100.00;102720.03;5951527;29;20039;-70
2024/01/11 03:49:21;;;;;;;21.85;7.78;;;;;;;-9.40;100.00;102709.44;5950679;29;20055;-70
2024/01/11 03:52:17;;;;;;;24.53;7.57;;;;;;;-9.24;100.00;102696.84;5952965;29;20071;-70
2024/01/11 03:55:13;;;;;;;21.42;6.22;;;;;;;-9.33;100.00;102724.09;5945117;29;20111;-70
2024/01/11 03:58:08;;;;;;;21.30;6.40;;;;;;;-9.14;100.00;102715.88;5949581;29;20042;-69
2024/01/11 04:01:03;;;;;;;24.20;6.13;;;;;;;-9.00;100.00;102705.84;5945056;29;20127;-69
2024/01/11 04:03:59;;;;;;;14.57;5.10;;;;;;;-8.99;100.00;102707.59;5958124;29;20023;-70
2024/01/11 04:06:54;;;;;;;18.60;6.87;;;;;;;-9.10;100.00;102713.38;5952541;29;20407;-71
2024/01/11 04:09:49;;;;;;;18.00;7.00;;;;;;;-9.15;100.00;102711.56;5957352;29;20116;-69
2024/01/11 04:12:45;;;;;;;13.73;5.30;;;;;;;-8.93;100.00;102718.81;5951844;29;20040;-69
2024/01/11 04:15:40;;;;;;;15.43;6.17;;;;;;;-9.37;100.00;102712.03;5953628;29;20035;-69
2024/01/11 04:18:35;;;;;;;20.80;6.68;;;;;;;-9.36;100.00;102698.34;5954472;29;20914;-70
2024/01/11 04:21:31;;;;;;;23.70;5.90;;;;;;;-9.52;100.00;102697.22;5956617;29;20053;-71
2024/01/11 04:24:26;;;;;;;18.67;5.87;;;;;;;-9.50;100.00;102699.81;5954484;29;20131;-71
2024/01/11 04:27:23;;;;;;;21.88;6.18;;;;;;;-9.44;100.00;102703.34;5955820;29;20134;-70
2024/01/11 04:30:19;;;;;;;14.63;7.07;;;;;;;-9.43;100.00;102688.84;5954247;29;20543;-70
2024/01/11 04:33:14;;;;;;;28.53;6.30;;;;;;;-9.55;100.00;102698.84;5955058;29;20055;-71
2024/01/11 04:36:10;;;;;;;20.97;6.23;;;;;;;-9.18;100.00;102678.13;5954488;29;20208;-70
2024/01/11 04:39:07;;;;;;;12.90;5.35;;;;;;;-9.49;100.00;102697.28;5957657;29;20395;-71
2024/01/11 04:42:02;;;;;;;24.23;7.15;;;;;;;-9.02;100.00;102687.81;5958230;29;20541;-70
2024/01/11 04:44:57;;;;;;;18.95;7.25;;;;;;;-8.99;100.00;102708.41;5957259;29;20035;-70
2024/01/11 04:47:53;;;;;;;20.77;6.77;;;;;;;-8.84;100.00;102692.41;5952155;29;20119;-71
2024/01/11 04:50:48;;;;;;;27.20;7.50;;;;;;;-8.72;100.00;102705.41;5950845;29;20064;-71
2024/01/11 04:53:45;;;;;;;20.80;8.40;;;;;;;-9.07;100.00;102713.44;5958295;29;20040;-71
2024/01/11 04:56:40;;;;;;;16.45;7.60;;;;;;;-8.85;100.00;102719.78;5956601;29;20036;-70
2024/01/11 04:59:35;;;;;;;7.50;3.83;;;;;;;-8.90;100.00;102718.84;5957919;29;20047;-71
2024/01/11 05:02:31;;;;;;;23.17;6.80;;;;;;;-9.33;100.00;102726.66;5943663;29;20063;-70
2024/01/11 05:05:26;;;;;;;19.83;6.90;;;;;;;-9.11;100.00;102723.66;5954354;29;20646;-70
2024/01/11 05:08:21;;;;;;;20.13;6.33;;;;;;;-9.17;100.00;102738.94;5942591;29;20028;-70
2024/01/11 05:11:18;;;;;;;14.70;5.63;;;;;;;-9.19;100.00;102740.63;5951951;29;20089;-70
2024/01/11 05:14:13;;;;;;;15.18;6.97;;;;;;;-9.19;100.00;102756.91;5948908;29;20066;-70
2024/01/11 05:17:08;;;;;;;20.83;6.47;;;;;;;-9.15;100.00;102737.25;5948973;29;20040;-71
2024/01/11 05:20:05;;;;;;;16.07;7.13;;;;;;;-9.08;100.00;102750.22;5953555;29;20043;-70
2024/01/11 05:23:00;;;;;;;15.10;5.60;;;;;;;-9.17;100.00;102728.66;5951475;29;20794;-70
2024/01/11 05:25:56;;;;;;;17.63;5.43;;;;;;;-9.60;100.00;102721.00;5945060;29;20036;-71
2024/01/11 05:28:51;;;;;;;13.47;4.37;;;;;;;-9.28;100.00;102725.03;5951607;29;20065;-70
2024/01/11 05:31:46;;;;;;;13.70;4.27;;;;;;;-9.10;100.00;102717.66;5951815;29;20059;-71
2024/01/11 05:34:42;;;;;;;17.17;6.30;;;;;;;-9.50;100.00;102697.25;5940907;29;20048;-71
2024/01/11 05:37:37;;;;;;;20.83;6.03;;;;;;;-9.86;100.00;102703.41;5951149;29;20036;-70
2024/01/11 05:40:33;;;;;;;17.17;5.73;;;;;;;-9.28;100.00;102714.75;5950618;29;20042;-71
2024/01/11 05:43:29;;;;;;;13.05;5.53;;;;;;;-9.32;100.00;102698.44;5950748;29;20058;-71
2024/01/11 05:46:24;;;;;;;15.43;5.57;;;;;;;-9.56;100.00;102707.38;5949527;29;20031;-70
2024/01/11 05:49:20;;;;;;;19.93;7.00;;;;;;;-9.58;100.00;102735.59;5954738;29;20054;-70
2024/01/11 05:52:15;;;;;;;17.93;6.97;;;;;;;-9.43;100.00;102738.44;5942648;29;20122;-70
2024/01/11 05:55:10;;;;;;;18.63;6.53;;;;;;;-8.93;100.00;102713.66;5945937;29;20427;-70
2024/01/11 05:58:06;;;;;;;10.77;5.27;;;;;;;-9.21;100.00;102703.75;5948759;29;20448;-70
2024/01/11 06:01:01;;;;;;;17.80;6.03;;;;;;;-9.74;100.00;102683.13;5951815;29;20487;-70
2024/01/11 06:03:57;;;;;;;23.65;5.97;;;;;;;-9.52;100.00;102714.31;5950787;29;20344;-71
2024/01/11 06:06:52;;;;;;;17.40;6.40;;;;;;;-9.15;100.00;102719.28;5951312;29;20031;-71
2024/01/11 06:09:47;;;;;;;15.05;5.07;;;;;;;-9.39;100.00;102711.13;5950993;29;20468;-71
2024/01/11 06:12:43;;;;;;;15.18;5.00;;;;;;;-9.11;100.00;102714.25;5946097;29;20149;-69
2024/01/11 06:15:38;;;;;;;18.80;6.33;;;;;;;-9.09;100.00;102706.53;5949629;29;20063;-70
2024/01/11 06:18:33;;;;;;;23.67;6.77;;;;;;;-9.52;100.00;102688.66;5948179;29;20062;-70
2024/01/11 06:21:29;;;;;;;22.03;7.43;;;;;;;-9.68;100.00;102680.69;5954222;29;20027;-71
2024/01/11 06:24:24;;;;;;;25.57;8.17;;;;;;;-9.78;100.00;102671.06;5953218;29;20067;-71
2024/01/11 06:27:19;;;;;;;21.07;7.67;;;;;;;-9.72;100.00;102685.69;5952335;29;20134;-71
2024/01/11 06:30:15;;;;;;;18.07;6.23;;;;;;;-9.77;100.00;102684.75;5951711;29;20050;-70
2024/01/11 06:33:10;;;;;;;17.53;5.30;;;;;;;-9.59;100.00;102704.78;5943527;29;20595;-71
2024/01/11 06:36:07;;;;;;;19.55;7.85;;;;;;;-9.54;100.00;102692.91;5943589;29;20280;-71
2024/01/11 06:39:03;;;;;;;24.73;7.43;;;;;;;-9.80;100.00;102684.69;5948857;29;20459;-71
2024/01/11 06:41:59;;;;;;;13.80;4.03;;;;;;;-9.74;100.00;102690.81;5951080;29;20652;-71
2024/01/11 06:44:54;;;;;;;15.03;5.93;;;;;;;-9.83;100.00;102682.94;5939410;29;20050;-71
2024/01/11 06:47:49;;;;;;;17.77;6.03;;;;;;;-9.76;100.00;102700.19;5948397;29;20047;-71
2024/01/11 06:50:45;;;;;;;19.13;5.67;;;;;;;-9.82;100.00;102705.19;5947658;29;20044;-71
2024/01/11 06:53:41;;;;;;;9.43;3.63;;;;;;;-9.67;100.00;102697.78;5948099;29;20051;-71
2024/01/11 06:56:37;;;;;;;18.45;5.28;;;;;;;-9.68;100.00;102708.91;5951795;29;20441;-71
2024/01/11 06:59:32;;;;;;;21.33;7.23;;;;;;;-9.69;100.00;102706.28;5951220;29;20047;-71
2024/01/11 07:02:27;;;;;;;21.97;8.13;;;;;;;-9.69;100.00;102706.28;5944497;29;20043;-70
2024/01/11 07:05:23;;;;;;;27.17;7.40;;;;;;;-9.85;100.00;102714.53;5953674;29;20586;-71
2024/01/11 07:08:18;;;;;;;20.70;5.57;;;;;;;-9.83;100.00;102728.25;5951442;29;20034;-70
2024/01/11 07:11:13;;;;;;;17.87;6.27;;;;;;;-9.73;100.00;102730.19;5945126;29;20035;-71
2024/01/11 07:14:08;;;;;;;16.93;6.87;;;;;;;-9.72;100.00;102750.72;5953821;29;20032;-70
2024/01/11 07:17:04;;;;;;;18.73;5.93;;;;;;;-9.63;100.00;102749.19;5952004;29;20035;-70
2024/01/11 07:19:59;;;;;;;20.83;7.87;;;;;;;-9.80;100.00;102744.56;5953784;29;20064;-70
2024/01/11 07:22:54;;;;;;;16.13;5.60;;;;;;;-9.64;100.00;102744.88;5951154;29;20475;-71
2024/01/11 07:25:50;;;;;;;20.37;5.80;;;;;;;-9.67;100.00;102756.81;5949905;29;20040;-70
2024/01/11 07:28:45;;;;;;;20.17;7.00;;;;;;;-9.65;100.00;102758.56;5952068;29;20066;-70
2024/01/11 07:31:41;;;;;;;19.27;5.93;;;;;;;-9.68;100.00;102760.22;5946228;29;20040;-71
2024/01/11 07:34:36;;;;;;;18.17;6.67;;;;;;;-9.74;100.00;102764.34;5953514;29;20474;-70
2024/01/11 07:37:31;;;;;;;24.85;8.32;;;;;;;-9.59;100.00;102769.78;5950431;29;20130;-70
2024/01/11 07:40:27;;;;;;;13.70;7.10;;;;;;;-9.62;100.00;102758.63;5954474;29;20051;-70
2024/01/11 07:43:22;;;;;;;19.60;5.43;;;;;;;-9.62;100.00;102748.34;5951088;29;20032;-72
2024/01/11 07:46:17;;;;;;;21.60;5.87;;;;;;;-9.57;100.00;102760.44;5946037;29;20040;-72
2024/01/11 07:49:12;;;;;;;16.50;6.37;;;;;;;-9.62;100.00;102748.34;5953432;29;20031;-71
2024/01/11 07:52:08;;;;;;;18.13;6.20;;;;;;;-9.53;100.00;102751.06;5942897;29;20063;-71
2024/01/11 07:55:07;;;;;;;18.52;5.13;;;;;;;-9.61;100.00;102742.38;5947604;29;20096;-71
2024/01/11 07:58:03;;;;;;;17.67;6.20;;;;;;;-9.51;100.00;102740.00;5949424;29;20058;-71
2024/01/11 08:00:58;;;;;;;15.90;6.85;;;;;;;-9.48;100.00;102737.50;5946980;29;20622;-71
2024/01/11 08:03:53;;;;;;;15.43;4.80;;;;;;;-9.35;100.00;102728.34;5951267;29;20067;-71
2024/01/11 08:06:49;;;;;;;25.47;8.50;;;;;;;-9.37;100.00;102730.88;5952034;29;20608;-72
2024/01/11 08:09:46;;;;;;;17.87;5.77;;;;;;;-9.34;100.00;102751.47;5953778;29;20539;-71
2024/01/11 08:12:42;;;;;;;12.80;5.20;;;;;;;-9.29;100.00;102744.72;5951242;29;20035;-71
2024/01/11 08:15:37;;;;;;;12.63;5.03;;;;;;;-9.19;100.00;102743.19;5954482;29;20039;-71
2024/01/11 08:18:33;;;;;;;19.13;6.93;;;;;;;-9.17;100.00;102759.47;5958459;29;20028;-70
2024/01/11 08:21:28;;;;;;;12.02;5.53;;;;;;;-9.17;100.00;102749.22;5950083;29;20051;-71
2024/01/11 08:24:24;;;;;;;18.17;6.47;;;;;;;-9.07;100.00;102757.09;5955928;29;20047;-70
2024/01/11 08:27:20;;;;;;;21.73;7.53;;;;;;;-8.96;100.00;102748.72;5950372;29;20114;-71
2024/01/11 08:30:15;;;;;;;19.87;6.33;;;;;;;-8.95;100.00;102746.19;5956077;29;20425;-71
2024/01/11 08:33:10;;;;;;;24.15;7.43;;;;;;;-8.87;100.00;102736.91;5951522;29;20036;-71
2024/01/11 08:36:06;;;;;;;26.77;7.33;;;;;;;-8.61;100.00;102737.31;5952671;29;20047;-71
2024/01/11 08:39:05;;;;;;;24.65;7.15;;;;;;;-8.36;100.00;102753.97;5953971;29;20054;-71
2024/01/11 08:42:00;;;;;;;27.52;8.20;;;;;;;-8.12;100.00;102764.56;5948731;29;20038;-71
2024/01/11 08:44:56;;;;;;;14.83;6.97;;;;;;;-7.96;100.00;102763.94;5951316;29;20035;-71
2024/01/11 08:47:51;;;;;;;25.63;8.03;;;;;;;-7.97;100.00;102739.06;5947199;29;20375;-72
2024/01/11 08:50:46;;;;;;;17.45;6.90;;;;;;;-7.91;100.00;102759.75;5947904;29;20036;-72
2024/01/11 08:53:42;;;;;;;22.13;7.40;;;;;;;-7.85;100.00;102742.66;5953000;29;20036;-72
2024/01/11 08:56:39;;;;;;;24.57;6.33;;;;;;;-7.80;100.00;102742.72;5953763;29;20031;-73
2024/01/11 08:59:34;;;;;;;29.98;8.32;;;;;;;-7.76;100.00;102739.34;5949942;29;20035;-72
2024/01/11 09:02:29;;;;;;;28.80;8.10;;;;;;;-7.61;100.00;102744.66;5951726;29;20062;-73
2024/01/11 09:05:25;;;;;;;19.80;6.97;;;;;;;-7.47;100.00;102740.53;5956909;29;20479;-72
2024/01/11 09:08:20;;;;;;;28.05;7.82;;;;;;;-7.44;100.00;102750.88;5956584;29;20078;-74
2024/01/11 09:11:17;;;;;;;33.10;9.53;;;;;;;-7.42;100.00;102749.16;5955821;29;20035;-74
2024/01/11 09:14:13;;;;;;;27.60;9.45;;;;;;;-7.40;100.00;102744.06;5953631;29;20032;-74
2024/01/11 09:17:10;;;;;;;17.92;7.40;;;;;;;-7.22;100.00;102761.41;5938375;29;20101;-74
2024/01/11 09:20:06;;;;;;;23.92;7.40;;;;;;;-7.14;100.00;102752.03;5955586;29;20031;-73
2024/01/11 09:23:04;;;;;;;28.08;8.63;;;;;;;-6.98;100.00;102779.69;5968079;29;20038;-73
2024/01/11 09:25:59;;;;;;;23.85;8.65;;;;;;;-6.93;100.00;102770.31;5949362;29;20051;-74
2024/01/11 09:28:54;;;;;;;31.43;7.60;;;;;;;-6.69;100.00;102783.44;5954850;29;20028;-74
2024/01/11 09:31:50;;;;;;;24.27;7.90;;;;;;;-6.88;100.00;102772.09;5955072;29;20287;-74
2024/01/11 09:34:45;;;;;;;23.70;7.17;;;;;;;-7.01;100.00;102761.66;5956028;29;20059;-72
2024/01/11 09:37:42;;;;;;;27.10;8.00;;;;;;;-7.00;100.00;102755.63;5951760;29;20032;-72
2024/01/11 09:40:38;;;;;;;19.27;7.95;;;;;;;-6.90;100.00;102757.47;5947365;29;20070;-72
2024/01/11 09:43:36;;;;;;;26.30;7.45;;;;;;;-6.87;100.00;102748.00;5956483;29;20044;-73
2024/01/11 09:46:40;;;;;;;28.17;7.70;;;;;;;-6.73;100.00;102743.84;5962909;29;20039;-73
2024/01/11 09:49:40;;;;;;;20.08;6.95;;;;;;;-6.72;100.00;102716.34;5939822;29;20043;-72
2024/01/11 09:52:38;;;;;;;23.70;7.15;;;;;;;-6.58;100.00;102704.44;5943788;29;20071;-73
2024/01/11 09:55:33;;;;;;;23.92;7.00;;;;;;;-6.39;100.00;102734.66;5951897;29;20036;-72
2024/01/11 09:58:31;;;;;;;16.58;6.47;;;;;;;-6.31;100.00;102721.78;5951511;29;20046;-73
2024/01/11 10:01:27;;;;;;;23.80;7.95;;;;;;;-6.29;100.00;102713.22;5953520;29;20035;-73
2024/01/11 10:04:22;;;;;;;27.73;8.67;;;;;;;-6.33;100.00;102705.44;5955050;29;20031;-74
2024/01/11 10:07:20;;;;;;;25.53;6.10;;;;;;;-6.14;100.00;102713.28;5953479;29;20299;-73
2024/01/11 10:10:16;;;;;;;27.00;7.30;;;;;;;-6.12;100.00;102711.59;5951230;29;20280;-73
2024/01/11 10:13:11;;;;;;;18.27;5.97;;;;;;;-5.99;100.00;102719.38;5947793;29;20039;-73
2024/01/11 10:16:07;;;;;;;17.42;5.78;;;;;;;-5.98;100.00;102713.38;5948939;29;20032;-73
2024/01/11 10:19:03;;;;;;;18.70;6.43;;;;;;;-5.95;100.00;102731.47;5952443;29;20491;-74
2024/01/11 10:21:58;;;;;;;24.40;6.38;;;;;;;-5.88;100.00;102720.28;5953571;29;20044;-73
2024/01/11 10:25:11;;;;;;;16.57;5.97;;;;;;;-5.75;100.00;102729.78;5950058;29;20102;-73
2024/01/11 10:28:07;;;;;;;28.77;8.07;;;;;;;-5.68;100.00;102713.47;5952658;28;20040;-71
2024/01/11 10:31:03;;;;;;;22.87;7.10;;;;;;;-5.57;100.00;102724.72;5949655;29;20049;-73
2024/01/11 10:33:58;;;;;;;16.02;5.20;;;;;;;-5.55;100.00;102722.97;5949915;29;20528;-73
2024/01/11 10:36:54;;;;;;;18.70;6.63;;;;;;;-5.43;100.00;102721.28;5954206;29;20036;-73
2024/01/11 10:39:50;;;;;;;18.67;6.07;;;;;;;-5.34;100.00;102740.25;5942829;29;20034;-72
2024/01/11 10:42:49;;;;;;;17.23;5.60;;;;;;;-5.28;100.00;102715.31;5948271;29;20296;-73
2024/01/11 10:45:53;;;;;;;26.75;8.70;;;;;;;-5.10;100.00;102719.63;5953129;29;20027;-73
2024/01/11 10:48:53;;;;;;;19.67;6.40;;;;;;;-5.09;100.00;102717.06;5949360;29;20036;-72
2024/01/11 10:51:53;;;;;;;18.83;6.88;;;;;;;-5.07;100.00;102710.16;5940007;29;20121;-72
2024/01/11 10:54:49;;;;;;;15.18;6.22;;;;;;;-4.95;100.00;102714.50;5946416;29;20036;-72
2024/01/11 10:57:48;;;;;;;29.90;7.87;;;;;;;-5.03;100.00;102706.69;5955433;29;20110;-72
2024/01/11 11:00:44;;;;;;;27.30;7.72;;;;;;;-5.06;100.00;102727.41;5952537;29;20065;-73
2024/01/11 11:03:42;;;;;;;21.77;6.95;;;;;;;-5.11;100.00;102725.69;5952702;29;21643;-73
2024/01/11 11:06:38;;;;;;;25.08;7.32;;;;;;;-5.12;100.00;102713.59;5953875;29;20476;-72
2024/01/11 11:09:35;;;;;;;25.10;7.78;;;;;;;-5.10;100.00;102711.88;5953715;29;20038;-74
2024/01/11 11:12:32;;;;;;;23.08;6.80;;;;;;;-4.92;100.00;102704.97;5952414;29;20086;-72
2024/01/11 11:15:28;;;;;;;18.52;6.55;;;;;;;-4.97;100.00;102708.44;5953914;29;20054;-73
2024/01/11 11:18:24;;;;;;;23.50;7.63;;;;;;;-5.08;100.00;102698.06;5950850;29;20039;-73
2024/01/11 11:21:20;;;;;;;29.45;8.27;;;;;;;-5.00;100.00;102696.34;5953573;29;20063;-74
2024/01/11 11:24:17;;;;;;;24.38;8.18;;;;;;;-5.00;100.00;102701.53;5953686;29;20055;-72
2024/01/11 11:27:16;;;;;;;28.90;9.15;;;;;;;-4.92;100.00;102698.97;5944212;29;20027;-73
2024/01/11 11:30:11;;;;;;;30.85;9.85;;;;;;;-4.96;100.00;102692.94;5944593;29;20036;-72
2024/01/11 11:33:19;;;;;;;30.27;7.78;;;;;;;-4.96;100.00;102697.22;5953635;29;20067;-72
2024/01/11 11:36:17;;;;;;;26.27;7.43;;;;;;;-4.89;100.00;102684.28;5950960;29;20101;-72
2024/01/11 11:39:13;;;;;;;29.13;7.63;;;;;;;-4.85;100.00;102660.16;5951706;29;21150;-73
2024/01/11 11:42:09;;;;;;;24.20;6.65;;;;;;;-4.73;100.00;102663.59;5957345;29;20087;-73
2024/01/11 11:45:06;;;;;;;25.48;8.43;;;;;;;-4.79;100.00;102640.31;5948630;29;20043;-73
2024/01/11 11:48:02;;;;;;;24.83;6.97;;;;;;;-4.60;100.00;102658.41;5954506;29;20042;-73
2024/01/11 11:51:07;;;;;;;24.17;6.95;;;;;;;-4.41;100.00;102656.66;5956137;29;20028;-73
2024/01/11 11:54:03;;;;;;;27.45;6.95;;;;;;;-4.41;100.00;102646.28;5947644;29;20487;-73
2024/01/11 11:56:59;;;;;;;25.00;7.43;;;;;;;-4.18;100.00;102649.66;5956728;29;20239;-72
2024/01/11 12:00:05;;;;;;;24.88;8.30;;;;;;;-4.16;100.00;102653.13;5954888;29;20391;-73
2024/01/11 12:03:03;;;;;;;34.42;8.63;;;;;;;-4.24;100.00;102639.34;5954472;29;20042;-72
2024/01/11 12:06:00;;;;;;;25.73;8.07;;;;;;;-4.23;100.00;102631.56;5955904;29;20035;-72
2024/01/11 12:08:56;;;;;;;20.73;6.63;;;;;;;-4.19;100.00;102618.59;5957430;29;20028;-72
2024/01/11 12:11:52;;;;;;;21.05;7.43;;;;;;;-4.14;100.00;102622.03;5957520;29;20465;-73
2024/01/11 12:14:49;;;;;;;28.73;8.18;;;;;;;-4.00;100.00;102623.69;5954911;29;20035;-72
2024/01/11 12:17:45;;;;;;;34.45;8.00;;;;;;;-4.00;100.00;102631.47;5955856;29;20587;-75
2024/01/11 12:20:41;;;;;;;22.73;6.72;;;;;;;-4.03;100.00;102625.44;5956606;29;20040;-72
2024/01/11 12:23:38;;;;;;;27.73;7.90;;;;;;;-3.98;100.00;102616.78;5958253;29;20036;-72
2024/01/11 12:26:34;;;;;;;24.52;7.47;;;;;;;-3.92;100.00;102626.25;5946982;29;20440;-73
2024/01/11 12:29:30;;;;;;;28.08;7.65;;;;;;;-3.88;100.00;102623.63;5954950;28;20043;-72
2024/01/11 12:32:26;;;;;;;23.05;6.22;;;;;;;-3.87;100.00;102630.53;5949689;29;20027;-73
2024/01/11 12:35:23;;;;;;;25.13;7.60;;;;;;;-3.70;100.00;102633.91;5957756;29;20036;-72
2024/01/11 12:38:18;;;;;;;23.55;6.65;;;;;;;-3.70;100.00;102625.28;5955723;29;20032;-73
2024/01/11 12:41:14;;;;;;;25.17;7.40;;;;;;;-3.58;100.00;102637.28;5954503;29;20484;-73
2024/01/11 12:44:09;;;;;;;26.65;7.20;;;;;;;-3.59;100.00;102620.03;5952952;29;20273;-73
2024/01/11 12:47:05;;;;;;;27.23;7.45;;;;;;;-3.71;100.00;102608.84;5952772;29;20032;-73
2024/01/11 12:50:00;;;;;;;27.80;7.10;;;;;;;-3.74;100.00;102619.22;5949473;29;20024;-73
2024/01/11 12:53:08;;;;;;;24.52;7.72;;;;;;;-3.70;100.00;102620.09;5951903;29;20124;-73
2024/01/11 12:56:15;;;;;;;25.92;7.63;;;;;;;-3.75;100.00;102599.34;5954486;29;20066;-73
2024/01/11 12:59:11;;;;;;;24.08;7.65;;;;;;;-3.69;100.00;102603.66;5952994;29;20118;-73
2024/01/11 13:02:07;;;;;;;31.90;8.10;;;;;;;-3.67;100.00;102596.75;5956798;29;20035;-71
2024/01/11 13:05:03;;;;;;;21.43;6.43;;;;;;;-3.63;100.00;102593.25;5951912;29;20028;-72
2024/01/11 13:07:58;;;;;;;30.52;7.47;;;;;;;-3.54;100.00;102600.09;5945912;29;20035;-72
2024/01/11 13:10:54;;;;;;;41.50;11.50;;;;;;;-3.52;100.00;102608.72;5950331;29;20070;-72
2024/01/11 13:13:50;;;;;;;33.50;8.63;;;;;;;-3.54;100.00;102602.69;5956409;29;20388;-72
2024/01/11 13:16:46;;;;;;;25.70;7.63;;;;;;;-3.56;100.00;102588.91;5956779;29;20132;-72
2024/01/11 13:19:41;;;;;;;28.20;7.88;;;;;;;-3.49;100.00;102569.81;5957213;29;20039;-73